JOHN F KENNEDY INTL

KJFK (JFK)
New York, New York
Towered

Vatsim Metar:
KJFK 140551Z 19009KT 10SM BKN035 BKN070 OVC250 18/17 A2990 RMK AO2 SLP124 T01780167 10189 20178 58010

No ATC Online

Traffic

Inbound:
Ident
Type
Name
ETA
Phase
DAL657
B752
Clay Carter KDCA
09:37 Z
Cruse

Outbound:
Ident
Type
Name
Destination
Phase
AAL13
B752
Nishad VGHS
KMIA
Taxiing Out
AAL1282
B738
Yuto Sato RJTT
TNCM
Climb